createdAt,value
2023-04-10T00:01:40.641Z,101483.48
2023-04-10T00:04:16.084Z,101488.34
2023-04-10T00:06:46.605Z,101487.51
2023-04-10T00:09:15.695Z,101489.16
2023-04-10T00:11:44.365Z,101490.15
2023-04-10T00:14:16.230Z,101492.88
2023-04-10T00:16:48.233Z,101492.85
2023-04-10T00:19:17.157Z,101489.11
2023-04-10T00:21:51.982Z,101490.41
2023-04-10T00:24:23.138Z,101492.77
2023-04-10T00:26:58.227Z,101493.42
2023-04-10T00:29:26.546Z,101491.09
2023-04-10T00:32:01.823Z,101490.77
2023-04-10T00:34:30.091Z,101487.27
2023-04-10T00:37:02.421Z,101483.42
2023-04-10T00:39:30.783Z,101483.33
2023-04-10T00:42:01.679Z,101485.27
2023-04-10T00:44:30.980Z,101487.42
2023-04-10T00:46:59.179Z,101488.33
2023-04-10T00:49:27.811Z,101485.14
2023-04-10T00:51:57.938Z,101484.59
2023-04-10T00:54:30.643Z,101485.92
2023-04-10T00:56:59.914Z,101487.09
2023-04-10T00:59:28.124Z,101484.95
2023-04-10T01:01:58.087Z,101482.23
2023-04-10T01:04:36.515Z,101483.28
2023-04-10T01:07:15.672Z,101480.06
2023-04-10T01:10:08.632Z,101480.05
2023-04-10T01:13:01.217Z,101481.95
2023-04-10T01:15:30.276Z,101480.39
2023-04-10T01:18:07.106Z,101476.68
2023-04-10T01:20:37.944Z,101476.11
2023-04-10T01:23:34.509Z,101474.09
2023-04-10T01:26:07.527Z,101470.66
2023-04-10T01:28:52.086Z,101467.70
2023-04-10T01:31:42.946Z,101463.46
2023-04-10T01:34:17.038Z,101457.02
2023-04-10T01:37:10.445Z,101454.62
2023-04-10T01:39:40.669Z,101454.11
2023-04-10T01:42:09.486Z,101460.02
2023-04-10T01:44:42.568Z,101457.70
2023-04-10T01:47:11.295Z,101457.48
2023-04-10T01:49:44.626Z,101455.91
2023-04-10T01:52:13.396Z,101458.80
2023-04-10T01:54:45.899Z,101456.39
2023-04-10T01:57:17.050Z,101454.57
2023-04-10T01:59:58.716Z,101454.55
2023-04-10T02:02:33.733Z,101451.64
2023-04-10T02:05:02.602Z,101452.44
2023-04-10T02:07:41.970Z,101456.17
2023-04-10T02:10:16.870Z,101449.38
2023-04-10T02:13:14.782Z,101454.36
2023-04-10T02:15:51.021Z,101452.67
2023-04-10T02:18:22.011Z,101453.38
2023-04-10T02:20:50.693Z,101451.31
2023-04-10T02:23:21.058Z,101452.42
2023-04-10T02:25:49.858Z,101458.02
2023-04-10T02:28:24.022Z,101461.20
2023-04-10T02:30:54.149Z,101460.48
2023-04-10T02:33:22.748Z,101458.52
2023-04-10T02:35:51.023Z,101458.45
2023-04-10T02:38:19.247Z,101461.40
2023-04-10T02:40:48.900Z,101457.65
2023-04-10T02:43:21.508Z,101460.99
2023-04-10T02:45:50.028Z,101462.54
2023-04-10T02:48:23.718Z,101463.46
2023-04-10T02:50:57.873Z,101459.73
2023-04-10T02:53:26.734Z,101456.45
2023-04-10T02:56:01.089Z,101454.69
2023-04-10T02:58:32.887Z,101457.93
2023-04-10T03:01:02.329Z,101455.73
2023-04-10T03:06:58.146Z,101457.23
2023-04-10T03:09:26.783Z,101456.69
2023-04-10T03:11:55.523Z,101455.72
2023-04-10T03:14:27.163Z,101456.41
2023-04-10T03:16:56.060Z,101457.22
2023-04-10T03:19:26.801Z,101459.30
2023-04-10T03:21:57.698Z,101458.36
2023-04-10T03:24:29.531Z,101463.59
2023-04-10T03:27:04.403Z,101462.48
2023-04-10T03:29:32.598Z,101465.42
2023-04-10T03:32:03.312Z,101464.58
2023-04-10T03:34:33.917Z,101467.24
2023-04-10T03:37:03.241Z,101466.33
2023-04-10T03:39:31.509Z,101466.67
2023-04-10T03:41:59.942Z,101465.75
2023-04-10T03:44:32.181Z,101465.76
2023-04-10T03:47:01.512Z,101469.25
2023-04-10T03:49:30.495Z,101472.59
2023-04-10T03:52:06.516Z,101474.01
2023-04-10T03:54:38.767Z,101474.33
2023-04-10T03:57:09.133Z,101480.14
2023-04-10T03:59:41.039Z,101478.05
2023-04-10T04:02:12.149Z,101476.95
2023-04-10T04:04:41.925Z,101482.50
2023-04-10T04:07:39.369Z,101485.07
2023-04-10T04:10:26.999Z,101486.54
2023-04-10T04:13:16.150Z,101489.38
2023-04-10T04:15:55.890Z,101490.67
2023-04-10T04:18:43.451Z,101491.32
2023-04-10T04:21:42.092Z,101493.98
2023-04-10T04:24:26.727Z,101494.55
2023-04-10T04:27:23.468Z,101492.90
2023-04-10T04:30:11.814Z,101494.23
2023-04-10T04:32:52.438Z,101490.86
2023-04-10T04:35:36.244Z,101490.30
2023-04-10T04:38:40.334Z,101491.87
2023-04-10T04:41:27.206Z,101495.75
2023-04-10T04:44:11.699Z,101496.32
2023-04-10T04:46:55.578Z,101497.84
2023-04-10T04:49:30.133Z,101492.45
2023-04-10T04:52:17.564Z,101488.94
2023-04-10T04:55:03.515Z,101493.15
2023-04-10T04:57:45.990Z,101498.41
2023-04-10T05:00:27.700Z,101492.92
2023-04-10T05:03:10.066Z,101492.96
2023-04-10T05:05:59.012Z,101497.22
2023-04-10T05:08:48.134Z,101498.83
2023-04-10T05:11:43.428Z,101495.44
2023-04-10T05:14:23.927Z,101490.49
2023-04-10T05:17:12.406Z,101491.52
2023-04-10T05:19:49.305Z,101491.47
2023-04-10T05:22:23.584Z,101494.05
2023-04-10T05:25:10.530Z,101491.16
2023-04-10T05:28:00.105Z,101496.56
2023-04-10T05:30:43.638Z,101492.95
2023-04-10T05:35:55.112Z,101490.65
2023-04-10T05:39:05.146Z,101496.58
2023-04-10T05:42:14.204Z,101499.39
2023-04-10T05:44:57.484Z,101497.40
2023-04-10T05:47:48.152Z,101503.13
2023-04-10T05:50:30.780Z,101505.41
2023-04-10T05:53:31.898Z,101505.23
2023-04-10T05:56:28.662Z,101499.69
2023-04-10T05:59:24.144Z,101506.54
2023-04-10T06:02:03.516Z,101510.45
2023-04-10T06:04:32.035Z,101511.66
2023-04-10T06:07:03.981Z,101514.90
2023-04-10T06:09:34.100Z,101513.17
2023-04-10T06:12:03.341Z,101515.70
2023-04-10T06:14:32.114Z,101509.27
2023-04-10T06:17:02.589Z,101514.95
2023-04-10T06:19:31.807Z,101511.61
2023-04-10T06:21:59.984Z,101513.98
2023-04-10T06:24:30.201Z,101510.60
2023-04-10T06:26:59.924Z,101513.79
2023-04-10T06:29:28.082Z,101520.69
2023-04-10T06:31:57.089Z,101521.34
2023-04-10T06:34:25.627Z,101517.70
2023-04-10T06:37:01.381Z,101518.84
2023-04-10T06:39:30.334Z,101517.70
2023-04-10T06:41:58.831Z,101516.02
2023-04-10T06:44:56.174Z,101514.27
2023-04-10T06:47:25.113Z,101514.42
2023-04-10T06:50:04.430Z,101513.05
2023-04-10T06:52:33.545Z,101510.33
2023-04-10T06:55:01.773Z,101509.12
2023-04-10T06:57:30.613Z,101510.66
2023-04-10T06:59:59.135Z,101510.80
2023-04-10T07:02:27.932Z,101513.23
2023-04-10T07:04:57.170Z,101512.12
2023-04-10T07:07:29.262Z,101512.98
2023-04-10T07:09:58.232Z,101508.35
2023-04-10T07:12:29.565Z,101507.45
2023-04-10T07:15:03.908Z,101510.66
2023-04-10T07:17:33.206Z,101500.84
2023-04-10T07:20:01.897Z,101500.86
2023-04-10T07:22:31.101Z,101498.36
2023-04-10T07:24:59.631Z,101491.63
2023-04-10T07:27:28.207Z,101492.89
2023-04-10T07:29:57.227Z,101487.48
2023-04-10T07:32:27.922Z,101491.69
2023-04-10T07:34:56.434Z,101489.02
2023-04-10T07:37:25.960Z,101483.23
2023-04-10T07:39:54.719Z,101489.25
2023-04-10T07:42:23.535Z,101486.96
2023-04-10T07:44:52.407Z,101492.43
2023-04-10T07:47:20.750Z,101483.88
2023-04-10T07:49:49.650Z,101478.55
2023-04-10T07:52:18.601Z,101489.80
2023-04-10T07:54:47.086Z,101483.27
2023-04-10T07:57:17.007Z,101481.48
2023-04-10T07:59:46.203Z,101473.73
2023-04-10T08:02:15.121Z,101467.52
2023-04-10T08:04:44.842Z,101464.67
2023-04-10T08:07:13.717Z,101459.49
2023-04-10T08:09:42.082Z,101454.09
2023-04-10T08:12:12.101Z,101455.15
2023-04-10T08:14:40.382Z,101451.23
2023-04-10T08:17:15.072Z,101449.15
2023-04-10T08:19:44.350Z,101443.81
2023-04-10T08:22:15.566Z,101444.00
2023-04-10T08:24:45.257Z,101447.20
2023-04-10T08:27:33.826Z,101447.56
2023-04-10T08:30:07.541Z,101443.43
2023-04-10T08:32:39.821Z,101443.11
2023-04-10T08:35:12.815Z,101436.04
2023-04-10T08:37:49.651Z,101427.30
2023-04-10T08:40:24.646Z,101431.69
2023-04-10T08:42:54.337Z,101424.06
2023-04-10T08:45:22.958Z,101423.23
2023-04-10T08:47:52.756Z,101431.02
2023-04-10T08:50:21.936Z,101423.42
2023-04-10T08:52:53.621Z,101419.39
2023-04-10T08:55:27.071Z,101412.02
2023-04-10T08:58:00.948Z,101416.84
2023-04-10T09:00:31.807Z,101404.34
2023-04-10T09:03:55.517Z,101407.41
2023-04-10T09:06:28.320Z,101408.95
2023-04-10T09:12:01.565Z,101399.19
2023-04-10T09:14:32.221Z,101394.09
2023-04-10T09:17:20.502Z,101392.41
2023-04-10T09:19:50.685Z,101396.05
2023-04-10T09:22:29.145Z,101396.10
2023-04-10T09:24:59.612Z,101394.29
2023-04-10T09:27:32.703Z,101384.60
2023-04-10T09:30:01.341Z,101385.13
2023-04-10T09:32:43.711Z,101379.89
2023-04-10T09:35:15.281Z,101382.73
2023-04-10T09:37:47.234Z,101372.34
2023-04-10T09:40:21.518Z,101377.23
2023-04-10T09:42:53.186Z,101376.52
2023-04-10T09:45:23.108Z,101369.06
2023-04-10T09:48:07.743Z,101369.97
2023-04-10T09:50:42.362Z,101367.25
2023-04-10T09:53:19.710Z,101374.20
2023-04-10T09:55:49.738Z,101368.86
2023-04-10T09:58:19.226Z,101354.16
2023-04-10T10:00:49.128Z,101348.77
2023-04-10T10:03:21.276Z,101357.77
2023-04-10T10:05:50.893Z,101355.81
2023-04-10T10:08:26.601Z,101350.39
2023-04-10T10:10:57.671Z,101348.30
2023-04-10T10:13:36.822Z,101342.73
2023-04-10T10:16:11.174Z,101334.82
2023-04-10T10:18:59.461Z,101338.98
2023-04-10T10:21:28.656Z,101347.27
2023-04-10T10:24:01.716Z,101339.05
2023-04-10T10:26:32.131Z,101339.05
2023-04-10T10:29:06.212Z,101333.84
2023-04-10T10:31:37.449Z,101333.35
2023-04-10T10:34:07.732Z,101331.54
2023-04-10T10:36:37.164Z,101329.01
2023-04-10T10:39:26.974Z,101317.30
2023-04-10T10:42:14.261Z,101317.77
2023-04-10T10:44:53.340Z,101313.13
2023-04-10T10:47:31.183Z,101316.52
2023-04-10T10:50:03.687Z,101310.92
2023-04-10T10:52:39.530Z,101318.73
2023-04-10T10:55:24.994Z,101311.77
2023-04-10T10:58:09.075Z,101309.12
2023-04-10T11:00:53.014Z,101309.13
2023-04-10T11:03:28.918Z,101301.80
2023-04-10T11:06:03.252Z,101311.29
2023-04-10T11:08:33.668Z,101302.33
2023-04-10T11:11:08.513Z,101297.47
2023-04-10T11:13:39.663Z,101296.45
2023-04-10T11:16:10.914Z,101293.67
2023-04-10T11:19:02.615Z,101297.71
2023-04-10T11:21:35.705Z,101291.40
2023-04-10T11:24:07.462Z,101291.88
2023-04-10T11:26:39.992Z,101288.13
2023-04-10T11:29:17.706Z,101279.96
2023-04-10T11:31:55.615Z,101273.46
2023-04-10T11:34:24.050Z,101270.21
2023-04-10T11:36:53.470Z,101271.08
2023-04-10T11:39:21.681Z,101269.70
2023-04-10T11:41:51.532Z,101268.21
2023-04-10T11:44:29.894Z,101263.83
2023-04-10T11:46:58.176Z,101260.54
2023-04-10T11:49:34.739Z,101265.73
2023-04-10T11:52:03.266Z,101260.81
2023-04-10T11:54:32.755Z,101254.32
2023-04-10T11:57:09.625Z,101251.48
2023-04-10T11:59:41.215Z,101253.03
2023-04-10T12:02:11.704Z,101251.16
2023-04-10T12:04:40.480Z,101239.42
2023-04-10T12:07:11.145Z,101235.84
2023-04-10T12:09:39.471Z,101242.39
2023-04-10T12:12:12.942Z,101238.80
2023-04-10T12:14:42.778Z,101236.13
2023-04-10T12:17:13.755Z,101228.73
2023-04-10T12:19:53.497Z,101223.02
2023-04-10T12:22:22.173Z,101222.79
2023-04-10T12:24:53.735Z,101213.11
2023-04-10T12:27:27.160Z,101213.20
2023-04-10T12:29:58.127Z,101213.30
2023-04-10T12:32:29.923Z,101207.44
2023-04-10T12:34:59.329Z,101197.17
2023-04-10T12:37:54.863Z,101202.29
2023-04-10T12:40:23.366Z,101197.88
2023-04-10T12:42:51.939Z,101199.79
2023-04-10T12:45:21.690Z,101198.36
2023-04-10T12:47:54.010Z,101186.88
2023-04-10T12:50:28.907Z,101185.71
2023-04-10T12:53:24.716Z,101178.67
2023-04-10T12:56:03.586Z,101180.23
2023-04-10T12:58:32.904Z,101175.25
2023-04-10T13:01:09.464Z,101179.93
2023-04-10T13:03:38.842Z,101181.61
2023-04-10T13:06:08.070Z,101168.38
2023-04-10T13:08:36.659Z,101170.10
2023-04-10T13:11:08.777Z,101167.77
2023-04-10T13:13:39.698Z,101168.20
2023-04-10T13:16:12.942Z,101170.08
2023-04-10T13:18:42.371Z,101162.80
2023-04-10T13:21:12.266Z,101162.82
2023-04-10T13:23:42.709Z,101165.48
2023-04-10T13:26:11.030Z,101155.17
2023-04-10T13:28:40.669Z,101149.80
2023-04-10T13:31:08.994Z,101146.81
2023-04-10T13:33:37.587Z,101147.71
2023-04-10T13:36:06.179Z,101145.33
2023-04-10T13:38:34.506Z,101147.42
2023-04-10T13:41:03.189Z,101146.80
2023-04-10T13:43:31.488Z,101148.40
2023-04-10T13:45:59.993Z,101146.05
2023-04-10T13:48:37.535Z,101150.64
2023-04-10T13:51:08.922Z,101144.38
2023-04-10T13:53:37.766Z,101135.56
2023-04-10T13:56:07.131Z,101131.36
2023-04-10T13:58:36.530Z,101132.14
2023-04-10T14:01:05.658Z,101127.57
2023-04-10T14:03:35.621Z,101128.80
2023-04-10T14:06:04.312Z,101127.14
2023-04-10T14:08:33.899Z,101124.86
2023-04-10T14:11:03.268Z,101126.46
2023-04-10T14:13:31.891Z,101125.38
2023-04-10T14:16:04.376Z,101129.11
2023-04-10T14:18:33.759Z,101129.89
2023-04-10T14:21:05.545Z,101127.28
2023-04-10T14:23:42.134Z,101119.42
2023-04-10T14:26:11.056Z,101115.36
2023-04-10T14:28:42.841Z,101124.32
2023-04-10T14:31:12.802Z,101120.05
2023-04-10T14:33:41.196Z,101113.56
2023-04-10T14:36:09.939Z,101112.73
2023-04-10T14:38:38.130Z,101111.52
2023-04-10T14:41:08.019Z,101111.34
2023-04-10T14:43:37.839Z,101111.39
2023-04-10T14:46:06.496Z,101112.38
2023-04-10T14:48:37.593Z,101109.08
2023-04-10T14:51:13.082Z,101109.16
2023-04-10T14:53:41.838Z,101111.38
2023-04-10T14:56:13.743Z,101110.05
2023-04-10T14:58:43.995Z,101109.36
2023-04-10T15:01:13.492Z,101110.29
2023-04-10T15:03:41.949Z,101104.80
2023-04-10T15:06:14.088Z,101105.27
2023-04-10T15:08:42.499Z,101103.85
2023-04-10T15:11:10.698Z,101105.50
2023-04-10T15:13:40.835Z,101103.60
2023-04-10T15:16:09.240Z,101100.39
2023-04-10T15:18:37.482Z,101102.67
2023-04-10T15:21:06.425Z,101098.54
2023-04-10T15:23:34.702Z,101101.63
2023-04-10T15:26:14.266Z,101089.55
2023-04-10T15:28:46.076Z,101095.23
2023-04-10T15:31:14.442Z,101091.82
2023-04-10T15:33:51.811Z,101091.94
2023-04-10T15:36:20.433Z,101082.64
2023-04-10T15:38:50.154Z,101082.28
2023-04-10T15:41:19.685Z,101083.77
2023-04-10T15:43:51.499Z,101081.51
2023-04-10T15:46:19.883Z,101077.35
2023-04-10T15:48:56.814Z,101075.77
2023-04-10T15:51:32.809Z,101072.30
2023-04-10T15:54:03.463Z,101074.30
2023-04-10T15:56:33.115Z,101068.77
2023-04-10T15:59:03.741Z,101067.19
2023-04-10T16:01:32.355Z,101063.91
2023-04-10T16:04:04.328Z,101062.16
2023-04-10T16:06:34.297Z,101058.41
2023-04-10T16:09:03.539Z,101062.42
2023-04-10T16:11:36.863Z,101060.52
2023-04-10T16:14:05.798Z,101061.13
2023-04-10T16:16:34.712Z,101060.42
2023-04-10T16:19:10.149Z,101056.23
2023-04-10T16:21:38.492Z,101055.52
2023-04-10T16:24:07.023Z,101055.27
2023-04-10T16:26:36.053Z,101051.89
2023-04-10T16:29:06.897Z,101051.27
2023-04-10T16:31:35.413Z,101050.33
2023-04-10T16:34:05.291Z,101051.48
2023-04-10T16:36:34.131Z,101048.11
2023-04-10T16:39:02.509Z,101046.61
2023-04-10T16:41:31.329Z,101049.30
2023-04-10T16:44:00.317Z,101054.19
2023-04-10T16:46:28.916Z,101052.98
2023-04-10T16:48:58.618Z,101052.61
2023-04-10T16:51:28.456Z,101056.65
2023-04-10T16:54:00.221Z,101054.01
2023-04-10T16:56:28.768Z,101058.02
2023-04-10T16:58:59.597Z,101060.91
2023-04-10T17:01:29.227Z,101058.39
2023-04-10T17:03:58.231Z,101058.98
2023-04-10T17:06:34.230Z,101055.08
2023-04-10T17:09:03.209Z,101057.88
2023-04-10T17:11:31.675Z,101060.78
2023-04-10T17:13:59.998Z,101061.21
2023-04-10T17:16:28.299Z,101063.31
2023-04-10T17:18:59.092Z,101063.22
2023-04-10T17:21:27.504Z,101068.29
2023-04-10T17:23:59.399Z,101068.42
2023-04-10T17:26:27.887Z,101065.33
2023-04-10T17:28:56.740Z,101063.30
2023-04-10T17:31:25.894Z,101061.16
2023-04-10T17:33:54.596Z,101062.52
2023-04-10T17:36:30.526Z,101067.89
2023-04-10T17:39:04.265Z,101066.76
2023-04-10T17:41:33.074Z,101068.70
2023-04-10T17:44:05.608Z,101073.06
2023-04-10T17:46:34.166Z,101071.00
2023-04-10T17:53:03.346Z,101062.82
2023-04-10T17:55:38.759Z,101062.52
2023-04-10T17:58:06.628Z,101064.23
2023-04-10T18:00:33.894Z,101064.36
2023-04-10T18:03:01.545Z,101069.72
2023-04-10T18:05:30.224Z,101070.43
2023-04-10T18:08:01.176Z,101071.77
2023-04-10T18:10:28.405Z,101068.84
2023-04-10T18:12:58.043Z,101068.71
2023-04-10T18:15:25.671Z,101066.64
2023-04-10T18:17:54.275Z,101067.09
2023-04-10T18:20:21.998Z,101071.20
2023-04-10T18:22:49.958Z,101071.27
2023-04-10T18:25:17.115Z,101066.33
2023-04-10T18:28:09.733Z,101068.07
2023-04-10T18:30:38.583Z,101067.41
2023-04-10T18:33:10.612Z,101066.75
2023-04-10T18:35:39.540Z,101067.19
2023-04-10T18:38:07.688Z,101062.67
2023-04-10T18:40:37.693Z,101061.67
2023-04-10T18:43:04.778Z,101060.02
2023-04-10T18:45:33.872Z,101059.05
2023-04-10T18:48:00.901Z,101057.60
2023-04-10T18:50:27.946Z,101057.64
2023-04-10T18:52:56.061Z,101058.34
2023-04-10T18:55:23.727Z,101053.43
2023-04-10T18:57:50.918Z,101056.69
2023-04-10T19:00:18.631Z,101051.42
